Genua — IIYU — position and weather

sailwx.info

Track history (hours):
 
Tides and Currents Weather Stations Pressure Air Temp Water Temp Dewpoint Dewpoint Depression Visibility Wind Speed Wind Dir Waves Ship Positions

Genua

Last reported at 2017-Jan-16 16:06 UTC. Time now 2017-Jan-17 08:56 UTC.
Position N 44°25' E 008°47'.

Length 35 m; draft 5.2 m.

Type: Tug. MMSI: 247204000.

Date/timePositionNaut miles runAvg speedWind from/ knotsBaromVisibWave heightAir tempDewpointWater temp
2017-Jan-16 16:06N 44°25' E 008°47'2 3.8
2017-Jan-16 15:33N 44°25' E 008°50'0 0.1
2017-Jan-16 14:32N 44°25' E 008°50'0 0.0
2017-Jan-16 13:33N 44°25' E 008°50'0 0.0
2017-Jan-16 12:33N 44°25' E 008°50'0 0.0
2017-Jan-16 11:33N 44°25' E 008°50'0 0.0
2017-Jan-16 10:33N 44°25' E 008°50'0 0.0
2017-Jan-16 09:33N 44°25' E 008°50'0 0.4
2017-Jan-16 08:33N 44°25' E 008°50'1 0.6
2017-Jan-16 07:33N 44°25' E 008°50'5 4.5
2017-Jan-16 06:33N 44°23' E 008°56'1 1.4
2017-Jan-16 05:33N 44°25' E 008°55'0 0.0
2017-Jan-16 04:33N 44°25' E 008°55'0 0.0
2017-Jan-16 03:33N 44°25' E 008°55'0 0.0
2017-Jan-16 02:33N 44°25' E 008°55'0 0.0
2017-Jan-16 01:33N 44°25' E 008°55'0 0.0
2017-Jan-16 00:33N 44°25' E 008°55'0 0.0
2017-Jan-15 23:33N 44°25' E 008°55'0 0.0
2017-Jan-15 22:33N 44°25' E 008°55'0 0.0
2017-Jan-15 21:33N 44°25' E 008°55'0 0.0
2017-Jan-15 20:33N 44°25' E 008°55'0 0.0
2017-Jan-15 19:33N 44°25' E 008°55'0 0.0
2017-Jan-15 18:33N 44°25' E 008°55'0 0.0
2017-Jan-15 17:33N 44°25' E 008°55'0 0.0
2017-Jan-15 16:34N 44°25' E 008°55'0 0.0
2017-Jan-15 15:33N 44°25' E 008°55'0 0.0
2017-Jan-15 14:33N 44°25' E 008°55'0 0.0
2017-Jan-15 13:33N 44°25' E 008°55'0 0.0
2017-Jan-15 12:33N 44°25' E 008°55'0 0.0
2017-Jan-15 11:33N 44°25' E 008°55'0 0.0
2017-Jan-15 10:33N 44°25' E 008°55'0 0.0
2017-Jan-15 09:33N 44°25' E 008°55'0 0.0
2017-Jan-15 08:33N 44°25' E 008°55'0 0.0
2017-Jan-15 07:33N 44°25' E 008°55'0 0.0
2017-Jan-15 06:33N 44°25' E 008°55'0 0.0
2017-Jan-15 05:33N 44°25' E 008°55'0 0.0
2017-Jan-15 04:34N 44°25' E 008°55'0 0.0
2017-Jan-15 03:34N 44°25' E 008°55'0 0.0
2017-Jan-15 02:33N 44°25' E 008°55'0 0.0
2017-Jan-15 01:33N 44°25' E 008°55'0 0.0
2017-Jan-15 00:33N 44°25' E 008°55'0 0.0
2017-Jan-14 23:33N 44°25' E 008°55'0 0.0
2017-Jan-14 22:33N 44°25' E 008°55'0 0.0
2017-Jan-14 21:33N 44°25' E 008°55'0 0.0
2017-Jan-14 20:34N 44°25' E 008°55'0 0.0
2017-Jan-14 19:33N 44°25' E 008°55'0 0.0
2017-Jan-14 18:33N 44°25' E 008°55'0 0.0
2017-Jan-14 17:33N 44°25' E 008°55'0 0.0
2017-Jan-14 16:33N 44°25' E 008°55'0 0.0
2017-Jan-14 15:33N 44°25' E 008°55'0 0.0
2017-Jan-14 14:33N 44°25' E 008°55'0 0.0
2017-Jan-14 13:33N 44°25' E 008°55'0 0.0
2017-Jan-14 12:33N 44°25' E 008°55'0 0.0
2017-Jan-14 11:33N 44°25' E 008°55'0 0.0
2017-Jan-14 10:33N 44°25' E 008°55'0 0.0
2017-Jan-14 09:33N 44°25' E 008°55'0 0.0
2017-Jan-14 08:33N 44°25' E 008°55'0 0.0
2017-Jan-14 07:33N 44°25' E 008°55'0 0.0
2017-Jan-14 06:33N 44°25' E 008°55'0 0.0
2017-Jan-14 05:33N 44°25' E 008°55'0 0.0
2017-Jan-14 04:33N 44°25' E 008°55'0 0.0
2017-Jan-14 03:33N 44°25' E 008°55'0 0.0
2017-Jan-13 23:33N 44°25' E 008°55'0 0.0
2017-Jan-13 22:33N 44°25' E 008°55'0 0.0
2017-Jan-13 21:33N 44°25' E 008°55'0 0.0
2017-Jan-13 20:33N 44°25' E 008°55'0 0.0
2017-Jan-13 19:33N 44°25' E 008°55'1 1.2
2017-Jan-13 18:33N 44°24' E 008°54'1 1.2
2017-Jan-13 17:33N 44°25' E 008°55'0 0.0
2017-Jan-13 16:33N 44°25' E 008°55'0 0.0
2017-Jan-13 15:33N 44°25' E 008°55'0 0.0
2017-Jan-12 12:06N 44°25' E 008°55'0 0.0
2017-Jan-12 11:33N 44°25' E 008°55'0 0.0
2017-Jan-12 10:33N 44°25' E 008°55'0 0.0
2017-Jan-12 09:33N 44°25' E 008°55'0 0.0
2017-Jan-12 08:33N 44°25' E 008°55'0 0.0
2017-Jan-12 07:33N 44°25' E 008°55'0 0.0
2017-Jan-12 06:33N 44°25' E 008°55'0 0.0
2017-Jan-12 05:33N 44°25' E 008°55'0 0.0
2017-Jan-12 04:33N 44°25' E 008°55'0 0.0
2017-Jan-12 03:33N 44°25' E 008°55'0 0.0
2017-Jan-12 02:33N 44°25' E 008°55'0 0.0
2017-Jan-12 01:33N 44°25' E 008°55'0 0.0
2017-Jan-12 00:33N 44°25' E 008°55'0 0.0
2017-Jan-11 23:33N 44°25' E 008°55'0 0.0
2017-Jan-11 22:33N 44°25' E 008°55'0 0.0
2017-Jan-11 21:33N 44°25' E 008°55'0 0.0
2017-Jan-11 20:33N 44°25' E 008°55'0 0.0
2017-Jan-11 19:33N 44°25' E 008°55'0 0.0
2017-Jan-11 18:33N 44°25' E 008°55'0 0.0
2017-Jan-11 17:33N 44°25' E 008°55'0 0.0
2017-Jan-11 16:33N 44°25' E 008°55'0 0.0
2017-Jan-11 15:33N 44°25' E 008°55'0 0.0
2017-Jan-11 14:33N 44°25' E 008°55'0 0.0
2017-Jan-11 13:33N 44°25' E 008°55'0 0.0
2017-Jan-11 12:33N 44°25' E 008°55'0 0.0
2017-Jan-11 11:33N 44°25' E 008°55'0 0.0
2017-Jan-11 10:33N 44°25' E 008°55'0 0.0
2017-Jan-11 09:33N 44°25' E 008°55'0 0.0
2017-Jan-11 08:33N 44°25' E 008°55'0 0.0
2017-Jan-11 07:33N 44°25' E 008°55'0 0.0
2017-Jan-11 06:33N 44°25' E 008°55'0 0.0
2017-Jan-11 05:33N 44°25' E 008°55'0 0.0
2017-Jan-11 04:33N 44°25' E 008°55'0 0.0
2017-Jan-11 03:33N 44°25' E 008°55'0 0.0
2017-Jan-11 02:33N 44°25' E 008°55'0 0.0
2017-Jan-11 01:33N 44°25' E 008°55'0 0.0
2017-Jan-11 00:33N 44°25' E 008°55'0 0.0
2017-Jan-10 23:33N 44°25' E 008°55'0 0.0
2017-Jan-10 22:33N 44°25' E 008°55'0 0.0
2017-Jan-10 21:33N 44°25' E 008°55'0 0.0
2017-Jan-10 20:33N 44°25' E 008°55'0 0.0
2017-Jan-10 19:33N 44°25' E 008°55'0 0.0
2017-Jan-10 18:33N 44°25' E 008°55'0 0.0
2017-Jan-10 17:33N 44°25' E 008°55'0 0.0
2017-Jan-10 16:33N 44°25' E 008°55'0 0.0
2017-Jan-10 15:33N 44°25' E 008°55'0 0.0
2017-Jan-10 14:33N 44°25' E 008°55'0 0.0
2017-Jan-10 13:33N 44°25' E 008°55'0 0.0
2017-Jan-10 12:33N 44°25' E 008°55'0 0.0
2017-Jan-10 11:33N 44°25' E 008°55'0 0.0
2017-Jan-10 10:33N 44°25' E 008°55'0 0.1
2017-Jan-10 09:33N 44°25' E 008°55'0 0.1
2017-Jan-10 08:32N 44°25' E 008°55'0 0.0
2017-Jan-10 07:34N 44°25' E 008°55'0 0.0
2017-Jan-10 06:33N 44°25' E 008°55'0 0.0
2017-Jan-10 05:33N 44°25' E 008°55'0 0.0
2017-Jan-10 04:33N 44°25' E 008°55'0 0.0
2017-Jan-10 03:33N 44°25' E 008°55'0 0.0
2017-Jan-10 02:33N 44°25' E 008°55'0 0.0
2017-Jan-10 01:33N 44°25' E 008°55'0 0.0
2017-Jan-10 00:33N 44°25' E 008°55'0 0.0
2017-Jan-09 23:33N 44°25' E 008°55'0 0.0
2017-Jan-09 22:33N 44°25' E 008°55'0 0.0
2017-Jan-09 21:33N 44°25' E 008°55'0 0.0
2017-Jan-09 20:33N 44°25' E 008°55'0 0.0
2017-Jan-09 19:33N 44°25' E 008°55'0 0.0
2017-Jan-09 18:33N 44°25' E 008°55'0 0.0
2017-Jan-09 17:33N 44°25' E 008°55'0 0.0
2017-Jan-09 16:33N 44°25' E 008°55'0 0.0
2017-Jan-09 15:33N 44°25' E 008°55'0 0.0
2017-Jan-09 14:33N 44°25' E 008°55'0 0.0
2017-Jan-09 13:33N 44°25' E 008°55'0 0.0
2017-Jan-09 12:33N 44°25' E 008°55'0 0.0
2017-Jan-09 11:33N 44°25' E 008°55'0 0.0
2017-Jan-09 10:33N 44°25' E 008°55'0 0.0
2017-Jan-09 09:33N 44°25' E 008°55'0 0.0
2017-Jan-09 08:33N 44°25' E 008°55'  
Track history (hours):
 
Tides and Currents Weather Stations Pressure Air Temp Water Temp Dewpoint Dewpoint Depression Visibility Wind Speed Wind Dir Waves Ship Positions

Genua

Last reported at 2017-Jan-16 16:06 UTC. Time now 2017-Jan-17 08:56 UTC.
Position N 44°25' E 008°47'.

Length 35 m; draft 5.2 m.

Type: Tug. MMSI: 247204000.

Date/timePositionNaut miles runAvg speedWind from/ knotsBaromVisibWave heightAir tempDewpointWater temp
2017-Jan-16 16:06N 44°25' E 008°47'2 3.8
2017-Jan-16 15:33N 44°25' E 008°50'0 0.1
2017-Jan-16 14:32N 44°25' E 008°50'0 0.0
2017-Jan-16 13:33N 44°25' E 008°50'0 0.0
2017-Jan-16 12:33N 44°25' E 008°50'0 0.0
2017-Jan-16 11:33N 44°25' E 008°50'0 0.0
2017-Jan-16 10:33N 44°25' E 008°50'0 0.0
2017-Jan-16 09:33N 44°25' E 008°50'0 0.4
2017-Jan-16 08:33N 44°25' E 008°50'1 0.6
2017-Jan-16 07:33N 44°25' E 008°50'5 4.5
2017-Jan-16 06:33N 44°23' E 008°56'1 1.4
2017-Jan-16 05:33N 44°25' E 008°55'0 0.0
2017-Jan-16 04:33N 44°25' E 008°55'0 0.0
2017-Jan-16 03:33N 44°25' E 008°55'0 0.0
2017-Jan-16 02:33N 44°25' E 008°55'0 0.0
2017-Jan-16 01:33N 44°25' E 008°55'0 0.0
2017-Jan-16 00:33N 44°25' E 008°55'0 0.0
2017-Jan-15 23:33N 44°25' E 008°55'0 0.0
2017-Jan-15 22:33N 44°25' E 008°55'0 0.0
2017-Jan-15 21:33N 44°25' E 008°55'0 0.0
2017-Jan-15 20:33N 44°25' E 008°55'0 0.0
2017-Jan-15 19:33N 44°25' E 008°55'0 0.0
2017-Jan-15 18:33N 44°25' E 008°55'0 0.0
2017-Jan-15 17:33N 44°25' E 008°55'0 0.0
2017-Jan-15 16:34N 44°25' E 008°55'0 0.0
2017-Jan-15 15:33N 44°25' E 008°55'0 0.0
2017-Jan-15 14:33N 44°25' E 008°55'0 0.0
2017-Jan-15 13:33N 44°25' E 008°55'0 0.0
2017-Jan-15 12:33N 44°25' E 008°55'0 0.0
2017-Jan-15 11:33N 44°25' E 008°55'0 0.0
2017-Jan-15 10:33N 44°25' E 008°55'0 0.0
2017-Jan-15 09:33N 44°25' E 008°55'0 0.0
2017-Jan-15 08:33N 44°25' E 008°55'0 0.0
2017-Jan-15 07:33N 44°25' E 008°55'0 0.0
2017-Jan-15 06:33N 44°25' E 008°55'0 0.0
2017-Jan-15 05:33N 44°25' E 008°55'0 0.0
2017-Jan-15 04:34N 44°25' E 008°55'0 0.0
2017-Jan-15 03:34N 44°25' E 008°55'0 0.0
2017-Jan-15 02:33N 44°25' E 008°55'0 0.0
2017-Jan-15 01:33N 44°25' E 008°55'0 0.0
2017-Jan-15 00:33N 44°25' E 008°55'0 0.0
2017-Jan-14 23:33N 44°25' E 008°55'0 0.0
2017-Jan-14 22:33N 44°25' E 008°55'0 0.0
2017-Jan-14 21:33N 44°25' E 008°55'0 0.0
2017-Jan-14 20:34N 44°25' E 008°55'0 0.0
2017-Jan-14 19:33N 44°25' E 008°55'0 0.0
2017-Jan-14 18:33N 44°25' E 008°55'0 0.0
2017-Jan-14 17:33N 44°25' E 008°55'0 0.0
2017-Jan-14 16:33N 44°25' E 008°55'0 0.0
2017-Jan-14 15:33N 44°25' E 008°55'0 0.0
2017-Jan-14 14:33N 44°25' E 008°55'0 0.0
2017-Jan-14 13:33N 44°25' E 008°55'0 0.0
2017-Jan-14 12:33N 44°25' E 008°55'0 0.0
2017-Jan-14 11:33N 44°25' E 008°55'0 0.0
2017-Jan-14 10:33N 44°25' E 008°55'0 0.0
2017-Jan-14 09:33N 44°25' E 008°55'0 0.0
2017-Jan-14 08:33N 44°25' E 008°55'0 0.0
2017-Jan-14 07:33N 44°25' E 008°55'0 0.0
2017-Jan-14 06:33N 44°25' E 008°55'0 0.0
2017-Jan-14 05:33N 44°25' E 008°55'0 0.0
2017-Jan-14 04:33N 44°25' E 008°55'0 0.0
2017-Jan-14 03:33N 44°25' E 008°55'0 0.0
2017-Jan-13 23:33N 44°25' E 008°55'0 0.0
2017-Jan-13 22:33N 44°25' E 008°55'0 0.0
2017-Jan-13 21:33N 44°25' E 008°55'0 0.0
2017-Jan-13 20:33N 44°25' E 008°55'0 0.0
2017-Jan-13 19:33N 44°25' E 008°55'1 1.2
2017-Jan-13 18:33N 44°24' E 008°54'1 1.2
2017-Jan-13 17:33N 44°25' E 008°55'0 0.0
2017-Jan-13 16:33N 44°25' E 008°55'0 0.0
2017-Jan-13 15:33N 44°25' E 008°55'0 0.0
2017-Jan-12 12:06N 44°25' E 008°55'0 0.0
2017-Jan-12 11:33N 44°25' E 008°55'0 0.0
2017-Jan-12 10:33N 44°25' E 008°55'0 0.0
2017-Jan-12 09:33N 44°25' E 008°55'0 0.0
2017-Jan-12 08:33N 44°25' E 008°55'0 0.0
2017-Jan-12 07:33N 44°25' E 008°55'0 0.0
2017-Jan-12 06:33N 44°25' E 008°55'0 0.0
2017-Jan-12 05:33N 44°25' E 008°55'0 0.0
2017-Jan-12 04:33N 44°25' E 008°55'0 0.0
2017-Jan-12 03:33N 44°25' E 008°55'0 0.0
2017-Jan-12 02:33N 44°25' E 008°55'0 0.0
2017-Jan-12 01:33N 44°25' E 008°55'0 0.0
2017-Jan-12 00:33N 44°25' E 008°55'0 0.0
2017-Jan-11 23:33N 44°25' E 008°55'0 0.0
2017-Jan-11 22:33N 44°25' E 008°55'0 0.0
2017-Jan-11 21:33N 44°25' E 008°55'0 0.0
2017-Jan-11 20:33N 44°25' E 008°55'0 0.0
2017-Jan-11 19:33N 44°25' E 008°55'0 0.0
2017-Jan-11 18:33N 44°25' E 008°55'0 0.0
2017-Jan-11 17:33N 44°25' E 008°55'0 0.0
2017-Jan-11 16:33N 44°25' E 008°55'0 0.0
2017-Jan-11 15:33N 44°25' E 008°55'0 0.0
2017-Jan-11 14:33N 44°25' E 008°55'0 0.0
2017-Jan-11 13:33N 44°25' E 008°55'0 0.0
2017-Jan-11 12:33N 44°25' E 008°55'0 0.0
2017-Jan-11 11:33N 44°25' E 008°55'0 0.0
2017-Jan-11 10:33N 44°25' E 008°55'0 0.0
2017-Jan-11 09:33N 44°25' E 008°55'0 0.0
2017-Jan-11 08:33N 44°25' E 008°55'0 0.0
2017-Jan-11 07:33N 44°25' E 008°55'0 0.0
2017-Jan-11 06:33N 44°25' E 008°55'0 0.0
2017-Jan-11 05:33N 44°25' E 008°55'0 0.0
2017-Jan-11 04:33N 44°25' E 008°55'0 0.0
2017-Jan-11 03:33N 44°25' E 008°55'0 0.0
2017-Jan-11 02:33N 44°25' E 008°55'0 0.0
2017-Jan-11 01:33N 44°25' E 008°55'0 0.0
2017-Jan-11 00:33N 44°25' E 008°55'0 0.0
2017-Jan-10 23:33N 44°25' E 008°55'0 0.0
2017-Jan-10 22:33N 44°25' E 008°55'0 0.0
2017-Jan-10 21:33N 44°25' E 008°55'0 0.0
2017-Jan-10 20:33N 44°25' E 008°55'0 0.0
2017-Jan-10 19:33N 44°25' E 008°55'0 0.0
2017-Jan-10 18:33N 44°25' E 008°55'0 0.0
2017-Jan-10 17:33N 44°25' E 008°55'0 0.0
2017-Jan-10 16:33N 44°25' E 008°55'0 0.0
2017-Jan-10 15:33N 44°25' E 008°55'0 0.0
2017-Jan-10 14:33N 44°25' E 008°55'0 0.0
2017-Jan-10 13:33N 44°25' E 008°55'0 0.0
2017-Jan-10 12:33N 44°25' E 008°55'0 0.0
2017-Jan-10 11:33N 44°25' E 008°55'0 0.0
2017-Jan-10 10:33N 44°25' E 008°55'0 0.1
2017-Jan-10 09:33N 44°25' E 008°55'0 0.1
2017-Jan-10 08:32N 44°25' E 008°55'0 0.0
2017-Jan-10 07:34N 44°25' E 008°55'0 0.0
2017-Jan-10 06:33N 44°25' E 008°55'0 0.0
2017-Jan-10 05:33N 44°25' E 008°55'0 0.0
2017-Jan-10 04:33N 44°25' E 008°55'0 0.0
2017-Jan-10 03:33N 44°25' E 008°55'0 0.0
2017-Jan-10 02:33N 44°25' E 008°55'0 0.0
2017-Jan-10 01:33N 44°25' E 008°55'0 0.0
2017-Jan-10 00:33N 44°25' E 008°55'0 0.0
2017-Jan-09 23:33N 44°25' E 008°55'0 0.0
2017-Jan-09 22:33N 44°25' E 008°55'0 0.0
2017-Jan-09 21:33N 44°25' E 008°55'0 0.0
2017-Jan-09 20:33N 44°25' E 008°55'0 0.0
2017-Jan-09 19:33N 44°25' E 008°55'0 0.0
2017-Jan-09 18:33N 44°25' E 008°55'0 0.0
2017-Jan-09 17:33N 44°25' E 008°55'0 0.0
2017-Jan-09 16:33N 44°25' E 008°55'0 0.0
2017-Jan-09 15:33N 44°25' E 008°55'0 0.0
2017-Jan-09 14:33N 44°25' E 008°55'0 0.0
2017-Jan-09 13:33N 44°25' E 008°55'0 0.0
2017-Jan-09 12:33N 44°25' E 008°55'0 0.0
2017-Jan-09 11:33N 44°25' E 008°55'0 0.0
2017-Jan-09 10:33N 44°25' E 008°55'0 0.0
2017-Jan-09 09:33N 44°25' E 008°55'0 0.0
2017-Jan-09 08:33N 44°25' E 008°55'  

Dump ship's entire track history